createdAt,value
2019-05-13T00:01:00.785Z,1026.93
2019-05-13T00:02:04.317Z,1026.94
2019-05-13T00:03:03.896Z,1026.94
2019-05-13T00:04:04.861Z,1026.97
2019-05-13T00:05:06.260Z,1026.93
2019-05-13T00:06:07.642Z,1026.94
2019-05-13T00:07:09.030Z,1026.91
2019-05-13T00:08:10.415Z,1026.92
2019-05-13T00:09:13.936Z,1026.92
2019-05-13T00:10:14.621Z,1026.90
2019-05-13T00:11:14.507Z,1026.85
2019-05-13T00:12:15.891Z,1026.89
2019-05-13T00:13:17.284Z,1026.91
2019-05-13T00:14:18.668Z,1026.86
2019-05-13T00:15:20.049Z,1026.88
2019-05-13T00:16:23.363Z,1026.90
2019-05-13T00:17:23.719Z,1026.93
2019-05-13T00:18:24.130Z,1026.92
2019-05-13T00:19:25.512Z,1026.92
2019-05-13T00:20:26.899Z,1026.93
2019-05-13T00:21:28.278Z,1026.92
2019-05-13T00:22:29.668Z,1026.95
2019-05-13T00:23:31.051Z,1026.95
2019-05-13T00:24:33.876Z,1026.95
2019-05-13T00:25:34.105Z,1026.98
2019-05-13T00:26:35.123Z,1027.02
2019-05-13T00:27:36.514Z,1027.03
2019-05-13T00:28:37.904Z,1027.04
2019-05-13T00:29:39.284Z,1027.04
2019-05-13T00:30:40.676Z,1027.07
2019-05-13T00:31:43.695Z,1027.05
2019-05-13T00:32:44.654Z,1027.06
2019-05-13T00:33:44.758Z,1027.04
2019-05-13T00:34:46.151Z,1027.03
2019-05-13T00:35:47.532Z,1027.06
2019-05-13T00:36:48.933Z,1027.03
2019-05-13T00:37:50.315Z,1027.02
2019-05-13T00:38:53.290Z,1027.06
2019-05-13T00:39:54.292Z,1027.04
2019-05-13T00:40:54.713Z,1027.03
2019-05-13T00:41:55.755Z,1027.01
2019-05-13T00:42:57.143Z,1027.02
2019-05-13T00:43:58.539Z,1027.00
2019-05-13T00:44:59.915Z,1027.00
2019-05-13T00:46:03.694Z,1027.01
2019-05-13T00:47:04.338Z,1027.02
2019-05-13T00:48:04.626Z,1027.04
2019-05-13T00:49:05.357Z,1027.01
2019-05-13T00:50:06.737Z,1027.01
2019-05-13T00:51:08.130Z,1027.01
2019-05-13T00:52:09.524Z,1026.96
2019-05-13T00:53:13.203Z,1027.01
2019-05-13T00:54:13.328Z,1026.97
2019-05-13T00:55:14.757Z,1026.99
2019-05-13T00:56:14.956Z,1026.99
2019-05-13T00:57:16.357Z,1027.01
2019-05-13T00:58:17.746Z,1026.97
2019-05-13T00:59:19.137Z,1026.97
2019-05-13T01:00:20.517Z,1026.93
2019-05-13T01:01:24.215Z,1026.94
2019-05-13T01:02:24.305Z,1026.97
2019-05-13T01:03:27.839Z,1026.95
2019-05-13T01:04:25.955Z,1026.93
2019-05-13T01:05:27.341Z,1026.92
2019-05-13T01:06:28.737Z,1026.95
2019-05-13T01:07:30.125Z,1026.93
2019-05-13T01:08:33.684Z,1026.92
2019-05-13T01:09:34.269Z,1026.89
2019-05-13T01:10:34.664Z,1026.93
2019-05-13T01:11:35.550Z,1026.91
2019-05-13T01:12:36.939Z,1026.92
2019-05-13T01:13:38.313Z,1026.92
2019-05-13T01:14:39.708Z,1026.87
2019-05-13T01:15:41.088Z,1026.89
2019-05-13T01:16:44.098Z,1026.91
2019-05-13T01:17:44.821Z,1026.90
2019-05-13T01:18:45.216Z,1026.91
2019-05-13T01:19:46.594Z,1026.87
2019-05-13T01:20:47.982Z,1026.96
2019-05-13T01:21:49.373Z,1026.92
2019-05-13T01:22:50.762Z,1026.91
2019-05-13T01:23:54.199Z,1026.91
2019-05-13T01:24:54.196Z,1026.92
2019-05-13T01:25:54.844Z,1026.90
2019-05-13T01:26:56.234Z,1026.92
2019-05-13T01:27:57.623Z,1026.96
2019-05-13T01:28:59.003Z,1026.96
2019-05-13T01:30:00.383Z,1026.91
2019-05-13T01:31:03.943Z,1026.97
2019-05-13T01:32:04.551Z,1026.97
2019-05-13T01:33:04.655Z,1026.92
2019-05-13T01:34:05.807Z,1026.92
2019-05-13T01:35:07.197Z,1026.93
2019-05-13T01:36:08.581Z,1026.96
2019-05-13T01:37:09.965Z,1026.99
2019-05-13T01:38:13.353Z,1026.99
2019-05-13T01:39:13.938Z,1026.96
2019-05-13T01:40:14.043Z,1026.97
2019-05-13T01:41:15.434Z,1026.96
2019-05-13T01:42:16.813Z,1026.99
2019-05-13T01:43:18.189Z,1026.97
2019-05-13T01:44:19.573Z,1026.97
2019-05-13T01:45:20.964Z,1026.99
2019-05-13T01:46:24.093Z,1026.93
2019-05-13T01:47:24.197Z,1027.00
2019-05-13T01:48:25.034Z,1026.97
2019-05-13T01:49:26.429Z,1026.96
2019-05-13T01:50:27.810Z,1026.99
2019-05-13T01:51:29.208Z,1026.98
2019-05-13T01:52:30.588Z,1027.02
2019-05-13T01:53:33.449Z,1027.01
2019-05-13T01:54:33.849Z,1027.08
2019-05-13T01:55:34.666Z,1027.03
2019-05-13T01:56:36.046Z,1027.02
2019-05-13T01:57:37.430Z,1027.00
2019-05-13T01:58:38.821Z,1027.07
2019-05-13T01:59:40.207Z,1027.04
2019-05-13T02:00:44.002Z,1027.08
2019-05-13T02:01:44.200Z,1027.06
2019-05-13T02:02:44.478Z,1027.09
2019-05-13T02:03:45.656Z,1027.10
2019-05-13T02:04:47.053Z,1027.15
2019-05-13T02:05:48.443Z,1027.14
2019-05-13T02:06:49.840Z,1027.15
2019-05-13T02:07:59.661Z,1027.14
2019-05-13T02:08:54.322Z,1027.16
2019-05-13T02:09:53.939Z,1027.13
2019-05-13T02:10:55.356Z,1027.14
2019-05-13T02:11:56.716Z,1027.20
2019-05-13T02:12:58.099Z,1027.20
2019-05-13T02:13:59.505Z,1027.20
2019-05-13T02:15:00.876Z,1027.23
2019-05-13T02:16:03.926Z,1027.24
2019-05-13T02:17:04.161Z,1027.22
2019-05-13T02:18:04.989Z,1027.27
2019-05-13T02:19:06.365Z,1027.27
2019-05-13T02:20:07.749Z,1027.27
2019-05-13T02:21:09.148Z,1027.22
2019-05-13T02:22:10.515Z,1027.28
2019-05-13T02:23:14.350Z,1027.26
2019-05-13T02:24:14.485Z,1027.28
2019-05-13T02:25:14.598Z,1027.31
2019-05-13T02:26:15.983Z,1027.29
2019-05-13T02:27:17.365Z,1027.32
2019-05-13T02:28:18.743Z,1027.32
2019-05-13T02:29:20.140Z,1027.33
2019-05-13T02:30:21.536Z,1027.28
2019-05-13T02:31:31.997Z,1027.30
2019-05-13T02:32:24.307Z,1027.31
2019-05-13T02:33:25.685Z,1027.28
2019-05-13T02:34:27.091Z,1027.26
2019-05-13T02:35:28.470Z,1027.31
2019-05-13T02:36:32.662Z,1027.28
2019-05-13T02:37:34.076Z,1027.26
2019-05-13T02:38:35.428Z,1027.28
2019-05-13T02:39:33.902Z,1027.31
2019-05-13T02:40:35.287Z,1027.31
2019-05-13T02:41:36.674Z,1027.33
2019-05-13T02:42:38.055Z,1027.33
2019-05-13T02:43:42.167Z,1027.34
2019-05-13T02:44:43.490Z,1027.35
2019-05-13T02:45:42.902Z,1027.32
2019-05-13T02:46:44.237Z,1027.35
2019-05-13T02:47:44.818Z,1027.35
2019-05-13T02:48:46.202Z,1027.31
2019-05-13T02:49:47.585Z,1027.34
2019-05-13T02:50:52.552Z,1027.35
2019-05-13T02:51:54.299Z,1027.35
2019-05-13T02:52:53.140Z,1027.34
2019-05-13T02:53:53.009Z,1027.37
2019-05-13T02:54:54.389Z,1027.38
2019-05-13T02:55:55.772Z,1027.37
2019-05-13T02:56:57.154Z,1027.39
2019-05-13T02:57:58.532Z,1027.36
2019-05-13T02:59:03.422Z,1027.39
2019-05-13T03:00:04.090Z,1027.36
2019-05-13T03:01:03.063Z,1027.37
2019-05-13T03:02:04.330Z,1027.39
2019-05-13T03:03:05.343Z,1027.37
2019-05-13T03:04:06.718Z,1027.41
2019-05-13T03:05:08.100Z,1027.38
2019-05-13T03:06:09.502Z,1027.41
2019-05-13T03:07:12.032Z,1027.41
2019-05-13T03:08:12.639Z,1027.40
2019-05-13T03:09:13.644Z,1027.40
2019-05-13T03:10:15.035Z,1027.40
2019-05-13T03:11:16.425Z,1027.38
2019-05-13T03:12:17.813Z,1027.37
2019-05-13T03:13:19.208Z,1027.42
2019-05-13T03:14:23.532Z,1027.39
2019-05-13T03:15:23.138Z,1027.41
2019-05-13T03:16:23.403Z,1027.44
2019-05-13T03:17:24.657Z,1027.41
2019-05-13T03:18:26.101Z,1027.46
2019-05-13T03:19:27.446Z,1027.47
2019-05-13T03:20:28.849Z,1027.44
2019-05-13T03:21:32.635Z,1027.48
2019-05-13T03:22:32.641Z,1027.47
2019-05-13T03:23:33.168Z,1027.51
2019-05-13T03:24:34.298Z,1027.52
2019-05-13T03:25:35.679Z,1027.45
2019-05-13T03:26:37.072Z,1027.50
2019-05-13T03:27:38.459Z,1027.51
2019-05-13T03:28:43.073Z,1027.54
2019-05-13T03:29:43.266Z,1027.52
2019-05-13T03:30:45.855Z,1027.54
2019-05-13T03:31:46.171Z,1027.53
2019-05-13T03:32:53.029Z,1027.51
2019-05-13T03:33:47.725Z,1027.51
2019-05-13T03:34:47.977Z,1027.55
2019-05-13T03:35:54.923Z,1027.55
2019-05-13T03:36:55.905Z,1027.56
2019-05-13T03:37:52.797Z,1027.54
2019-05-13T03:39:04.580Z,1027.56
2019-05-13T03:39:54.944Z,1027.59
2019-05-13T03:40:56.343Z,1027.60
2019-05-13T03:41:57.728Z,1027.59
2019-05-13T03:43:02.317Z,1027.56
2019-05-13T03:44:02.563Z,1027.59
2019-05-13T03:45:03.067Z,1027.55
2019-05-13T03:46:03.447Z,1027.61
2019-05-13T03:47:04.560Z,1027.62
2019-05-13T03:48:05.938Z,1027.63
2019-05-13T03:49:07.328Z,1027.64
2019-05-13T03:50:08.725Z,1027.61
2019-05-13T03:51:12.936Z,1027.65
2019-05-13T03:52:13.486Z,1027.60
2019-05-13T03:53:13.198Z,1027.62
2019-05-13T03:54:14.197Z,1027.64
2019-05-13T03:55:15.600Z,1027.69
2019-05-13T03:56:16.990Z,1027.68
2019-05-13T03:57:18.381Z,1027.68
2019-05-13T03:58:23.466Z,1027.71
2019-05-13T03:59:22.479Z,1027.74
2019-05-13T04:00:23.542Z,1027.69
2019-05-13T04:01:23.886Z,1027.72
2019-05-13T04:02:25.283Z,1027.70
2019-05-13T04:03:26.664Z,1027.75
2019-05-13T04:04:28.053Z,1027.75
2019-05-13T04:05:33.092Z,1027.76
2019-05-13T04:06:32.374Z,1027.76
2019-05-13T04:07:32.590Z,1027.75
2019-05-13T04:08:33.512Z,1027.75
2019-05-13T04:09:36.328Z,1027.78
2019-05-13T04:10:36.257Z,1027.75
2019-05-13T04:11:37.654Z,1027.78
2019-05-13T04:12:42.217Z,1027.78
2019-05-13T04:13:42.987Z,1027.78
2019-05-13T04:14:42.386Z,1027.79
2019-05-13T04:15:43.117Z,1027.80
2019-05-13T04:16:44.498Z,1027.82
2019-05-13T04:17:45.903Z,1027.82
2019-05-13T04:18:47.289Z,1027.83
2019-05-13T04:19:48.678Z,1027.81
2019-05-13T04:20:52.730Z,1027.81
2019-05-13T04:21:52.892Z,1027.85
2019-05-13T04:22:53.221Z,1027.86
2019-05-13T04:23:54.155Z,1027.85
2019-05-13T04:24:55.563Z,1027.85
2019-05-13T04:25:56.959Z,1027.87
2019-05-13T04:26:58.371Z,1027.91
2019-05-13T04:28:02.868Z,1027.88
2019-05-13T04:29:03.173Z,1027.88
2019-05-13T04:30:03.463Z,1027.90
2019-05-13T04:31:04.001Z,1027.88
2019-05-13T04:32:05.167Z,1027.90
2019-05-13T04:33:06.557Z,1027.93
2019-05-13T04:34:07.952Z,1027.93
2019-05-13T04:35:12.216Z,1027.94
2019-05-13T04:36:13.399Z,1027.96
2019-05-13T04:37:13.260Z,1027.94
2019-05-13T04:38:13.449Z,1027.97
2019-05-13T04:39:14.757Z,1027.95
2019-05-13T04:40:16.201Z,1027.97
2019-05-13T04:41:17.495Z,1027.98
2019-05-13T04:42:18.894Z,1027.98
2019-05-13T04:43:23.238Z,1027.96
2019-05-13T04:44:24.068Z,1027.97
2019-05-13T04:45:24.088Z,1028.01
2019-05-13T04:46:24.353Z,1028.04
2019-05-13T04:47:25.743Z,1028.00
2019-05-13T04:48:27.136Z,1028.02
2019-05-13T04:49:28.527Z,1028.05
2019-05-13T04:50:32.690Z,1028.01
2019-05-13T04:51:32.908Z,1028.01
2019-05-13T04:52:33.107Z,1028.04
2019-05-13T04:53:34.010Z,1028.06
2019-05-13T04:54:35.403Z,1028.08
2019-05-13T04:55:36.806Z,1028.03
2019-05-13T04:56:38.190Z,1028.02
2019-05-13T04:57:42.207Z,1028.07
2019-05-13T04:58:42.888Z,1028.03
2019-05-13T04:59:44.538Z,1028.04
2019-05-13T05:00:49.983Z,1028.06
2019-05-13T05:01:48.893Z,1028.00
2019-05-13T05:02:50.143Z,1028.05
2019-05-13T05:03:47.729Z,1028.01
2019-05-13T05:04:52.227Z,1028.02
2019-05-13T05:05:52.647Z,1028.02
2019-05-13T05:06:52.706Z,1028.05
2019-05-13T05:07:53.197Z,1028.07
2019-05-13T05:08:54.590Z,1028.09
2019-05-13T05:10:16.891Z,1028.09
2019-05-13T05:10:57.580Z,1028.10
2019-05-13T05:12:01.892Z,1028.12
2019-05-13T05:13:02.295Z,1028.11
2019-05-13T05:14:02.747Z,1028.12
2019-05-13T05:15:03.123Z,1028.09
2019-05-13T05:16:04.490Z,1028.09
2019-05-13T05:17:05.879Z,1028.07
2019-05-13T05:18:07.258Z,1028.10
2019-05-13T05:19:08.669Z,1028.10
2019-05-13T05:20:11.985Z,1028.13
2019-05-13T05:21:11.940Z,1028.11
2019-05-13T05:22:13.444Z,1028.10
2019-05-13T05:23:14.163Z,1028.13
2019-05-13T05:24:15.600Z,1028.12
2019-05-13T05:25:17.014Z,1028.18
2019-05-13T05:26:18.437Z,1028.13
2019-05-13T05:27:21.369Z,1028.16
2019-05-13T05:28:21.780Z,1028.14
2019-05-13T05:29:22.593Z,1028.15
2019-05-13T05:30:23.988Z,1028.14
2019-05-13T05:31:25.380Z,1028.16
2019-05-13T05:32:26.801Z,1028.15
2019-05-13T05:33:28.201Z,1028.16
2019-05-13T05:34:31.696Z,1028.18
2019-05-13T05:35:32.348Z,1028.19
2019-05-13T05:36:32.326Z,1028.19
2019-05-13T05:37:33.726Z,1028.19
2019-05-13T05:38:35.120Z,1028.20
2019-05-13T05:39:36.555Z,1028.19
2019-05-13T05:40:37.963Z,1028.21
2019-05-13T05:41:39.380Z,1028.24
2019-05-13T05:42:41.233Z,1028.23
2019-05-13T05:43:45.170Z,1028.27
2019-05-13T05:44:43.582Z,1028.30
2019-05-13T05:45:44.990Z,1028.31
2019-05-13T05:46:46.375Z,1028.33
2019-05-13T05:47:51.010Z,1028.35
2019-05-13T05:48:50.729Z,1028.37
2019-05-13T05:49:51.586Z,1028.34
2019-05-13T05:50:52.684Z,1028.34
2019-05-13T05:51:54.092Z,1028.38
2019-05-13T05:52:55.488Z,1028.31
2019-05-13T05:53:56.884Z,1028.31
2019-05-13T05:54:58.284Z,1028.32
2019-05-13T05:56:02.136Z,1028.34
2019-05-13T05:57:01.226Z,1028.32
2019-05-13T05:58:02.463Z,1028.33
2019-05-13T05:59:03.938Z,1028.34
2019-05-13T06:00:05.328Z,1028.35
2019-05-13T06:01:06.731Z,1028.35
2019-05-13T06:02:08.215Z,1028.40
2019-05-13T06:03:13.548Z,1028.44
2019-05-13T06:04:12.658Z,1028.39
2019-05-13T06:05:12.624Z,1028.42
2019-05-13T06:06:13.741Z,1028.42
2019-05-13T06:07:15.134Z,1028.36
2019-05-13T06:08:17.870Z,1028.38
2019-05-13T06:09:17.896Z,1028.41
2019-05-13T06:10:19.350Z,1028.40
2019-05-13T06:11:22.299Z,1028.41
2019-05-13T06:12:22.089Z,1028.38
2019-05-13T06:13:23.490Z,1028.38
2019-05-13T06:14:24.893Z,1028.36
2019-05-13T06:15:26.281Z,1028.46
2019-05-13T06:16:27.687Z,1028.56
2019-05-13T06:17:29.075Z,1028.59
2019-05-13T06:18:32.032Z,1028.60
2019-05-13T06:19:32.122Z,1028.39
2019-05-13T06:20:33.207Z,1028.43
2019-05-13T06:21:34.637Z,1028.57
2019-05-13T06:22:36.039Z,1028.68
2019-05-13T06:23:37.447Z,1028.76
2019-05-13T06:24:38.849Z,1028.72
2019-05-13T06:25:42.545Z,1028.70
2019-05-13T06:26:42.037Z,1028.68
2019-05-13T06:27:43.019Z,1028.77
2019-05-13T06:28:44.426Z,1028.75
2019-05-13T06:29:48.855Z,1028.80
2019-05-13T06:30:47.217Z,1028.74
2019-05-13T06:31:48.632Z,1028.73
2019-05-13T06:32:52.312Z,1028.78
2019-05-13T06:33:51.578Z,1028.41
2019-05-13T06:34:52.791Z,1028.89
2019-05-13T06:35:54.200Z,1028.90
2019-05-13T06:36:55.606Z,1028.50
2019-05-13T06:37:57.044Z,1028.56
2019-05-13T06:38:58.458Z,1028.51
2019-05-13T06:40:01.696Z,1028.92
2019-05-13T06:41:06.704Z,1029.01
2019-05-13T06:42:03.084Z,1028.95
2019-05-13T06:43:04.029Z,1028.56
2019-05-13T06:44:05.428Z,1028.49
2019-05-13T06:45:06.833Z,1028.53
2019-05-13T06:46:08.288Z,1028.52
2019-05-13T06:47:11.428Z,1029.04
2019-05-13T06:48:11.779Z,1028.56
2019-05-13T06:49:12.471Z,1028.54
2019-05-13T06:50:13.879Z,1028.75
2019-05-13T06:51:15.298Z,1028.52
2019-05-13T06:52:16.723Z,1028.45
2019-05-13T06:53:18.143Z,1028.93
2019-05-13T06:54:21.737Z,1028.61
2019-05-13T06:55:21.277Z,1028.55
2019-05-13T06:56:22.367Z,1028.44
2019-05-13T06:57:23.770Z,1028.90
2019-05-13T06:58:25.185Z,1028.97
2019-05-13T06:59:26.596Z,1028.97
2019-05-13T07:00:28.000Z,1028.51
2019-05-13T07:01:29.418Z,1028.94
2019-05-13T07:02:32.117Z,1028.96
2019-05-13T07:03:32.343Z,1028.92
2019-05-13T07:04:33.566Z,1028.90
2019-05-13T07:05:34.998Z,1028.95
2019-05-13T07:06:36.421Z,1028.96
2019-05-13T07:07:37.841Z,1029.01
2019-05-13T07:08:41.455Z,1029.03
2019-05-13T07:09:42.459Z,1028.60
2019-05-13T07:10:42.002Z,1029.01
2019-05-13T07:11:43.437Z,1029.00
2019-05-13T07:12:44.834Z,1029.02
2019-05-13T07:13:46.249Z,1028.55
2019-05-13T07:14:47.657Z,1028.80
2019-05-13T07:15:49.071Z,1028.97
2019-05-13T07:16:52.154Z,1029.15
2019-05-13T07:17:52.046Z,1029.11
2019-05-13T07:18:53.229Z,1029.10
2019-05-13T07:19:54.635Z,1028.63
2019-05-13T07:20:56.056Z,1029.16
2019-05-13T07:21:57.472Z,1029.17
2019-05-13T07:23:01.431Z,1029.17
2019-05-13T07:24:02.002Z,1029.15
2019-05-13T07:25:02.643Z,1029.19
2019-05-13T07:26:03.016Z,1029.23
2019-05-13T07:27:04.438Z,1029.22
2019-05-13T07:28:05.849Z,1029.21
2019-05-13T07:29:07.777Z,1029.28
2019-05-13T07:30:11.126Z,1029.21
2019-05-13T07:31:11.581Z,1029.23
2019-05-13T07:32:11.951Z,1029.13
2019-05-13T07:33:12.997Z,1028.66
2019-05-13T07:34:14.245Z,1028.65
2019-05-13T07:35:15.748Z,1029.20
2019-05-13T07:36:17.152Z,1029.17
2019-05-13T07:37:18.580Z,1029.13
2019-05-13T07:38:22.033Z,1029.07
2019-05-13T07:39:22.370Z,1029.17
2019-05-13T07:40:22.784Z,1028.69
2019-05-13T07:41:35.611Z,1028.97
2019-05-13T07:42:25.634Z,1028.63
2019-05-13T07:43:27.058Z,1029.12
2019-05-13T07:44:28.469Z,1029.12
2019-05-13T07:45:31.584Z,1028.83
2019-05-13T07:46:32.243Z,1028.65
2019-05-13T07:47:32.796Z,1028.94
2019-05-13T07:48:34.219Z,1028.90
2019-05-13T07:49:35.860Z,1028.95
2019-05-13T07:50:51.251Z,1028.89
2019-05-13T07:51:38.789Z,1028.97
2019-05-13T07:52:41.995Z,1028.91
2019-05-13T07:53:42.570Z,1028.89
2019-05-13T07:54:42.960Z,1028.92
2019-05-13T07:55:44.378Z,1028.76
2019-05-13T07:56:46.180Z,1028.95
2019-05-13T07:57:47.625Z,1028.98
2019-05-13T07:58:49.119Z,1029.00
2019-05-13T07:59:52.208Z,1028.64
2019-05-13T08:00:52.125Z,1028.95
2019-05-13T08:01:53.276Z,1028.76
2019-05-13T08:02:55.499Z,1028.98
2019-05-13T08:03:56.908Z,1029.00
2019-05-13T08:04:58.488Z,1028.95
2019-05-13T08:06:01.769Z,1028.97
2019-05-13T08:07:01.962Z,1029.01
2019-05-13T08:08:02.789Z,1028.93
2019-05-13T08:09:04.204Z,1028.68
2019-05-13T08:10:05.619Z,1028.66
2019-05-13T08:11:07.060Z,1028.71
2019-05-13T08:12:10.996Z,1028.69
2019-05-13T08:13:11.675Z,1028.59
2019-05-13T08:14:12.345Z,1028.66
2019-05-13T08:15:12.712Z,1028.68
2019-05-13T08:16:14.174Z,1028.77
2019-05-13T08:17:15.844Z,1028.74
2019-05-13T08:18:16.971Z,1028.74
2019-05-13T08:19:18.380Z,1028.72
2019-05-13T08:20:21.886Z,1028.74
2019-05-13T08:21:21.493Z,1028.77
2019-05-13T08:22:22.553Z,1028.73
2019-05-13T08:23:23.978Z,1028.63
2019-05-13T08:24:25.389Z,1028.72
2019-05-13T08:25:26.802Z,1028.64
2019-05-13T08:26:28.248Z,1028.66
2019-05-13T08:27:30.785Z,1028.67
2019-05-13T08:28:32.350Z,1028.69
2019-05-13T08:29:32.873Z,1028.70
2019-05-13T08:30:33.818Z,1028.73
2019-05-13T08:31:35.207Z,1028.72
2019-05-13T08:32:36.612Z,1028.72
2019-05-13T08:33:38.054Z,1028.74
2019-05-13T08:34:41.521Z,1028.71
2019-05-13T08:35:41.738Z,1028.62
2019-05-13T08:36:42.621Z,1028.62
2019-05-13T08:37:43.608Z,1028.63
2019-05-13T08:38:45.083Z,1028.63
2019-05-13T08:39:46.409Z,1028.66
2019-05-13T08:40:47.841Z,1028.62
2019-05-13T08:41:51.398Z,1028.66
2019-05-13T08:42:52.054Z,1028.62
2019-05-13T08:43:52.387Z,1028.61
2019-05-13T08:44:53.591Z,1028.55
2019-05-13T08:45:55.829Z,1028.55
2019-05-13T08:46:56.399Z,1028.61
2019-05-13T08:47:57.811Z,1028.62
2019-05-13T08:48:59.235Z,1028.62
2019-05-13T08:50:03.886Z,1028.63
2019-05-13T08:51:03.010Z,1028.66
2019-05-13T08:52:03.376Z,1028.67
2019-05-13T08:53:04.786Z,1028.65
2019-05-13T08:54:06.190Z,1028.70
2019-05-13T08:55:07.595Z,1028.65
2019-05-13T08:56:09.000Z,1028.55
2019-05-13T08:57:11.812Z,1028.65
2019-05-13T08:58:12.436Z,1028.58
2019-05-13T08:59:13.188Z,1028.55
2019-05-13T09:00:14.616Z,1028.56
2019-05-13T09:01:16.019Z,1028.61
2019-05-13T09:02:17.424Z,1028.59
2019-05-13T09:03:21.317Z,1028.58
2019-05-13T09:04:22.114Z,1028.69
2019-05-13T09:05:21.622Z,1028.68
2019-05-13T09:06:23.045Z,1028.62
2019-05-13T09:07:24.571Z,1028.69
2019-05-13T09:08:25.831Z,1028.64
2019-05-13T09:09:27.347Z,1028.65
2019-05-13T09:10:28.749Z,1028.57
2019-05-13T09:11:31.524Z,1028.52
2019-05-13T09:12:35.621Z,1028.65
2019-05-13T09:13:33.224Z,1028.59
2019-05-13T09:14:34.273Z,1028.66
2019-05-13T09:15:35.712Z,1028.67
2019-05-13T09:16:37.107Z,1028.66
2019-05-13T09:17:38.521Z,1028.62
2019-05-13T09:18:42.422Z,1028.61
2019-05-13T09:19:41.561Z,1028.65
2019-05-13T09:20:42.699Z,1028.68
2019-05-13T09:21:44.106Z,1028.60
2019-05-13T09:22:45.514Z,1028.61
2019-05-13T09:23:46.918Z,1028.58
2019-05-13T09:24:48.327Z,1028.56
2019-05-13T09:25:51.851Z,1028.59
2019-05-13T09:26:52.731Z,1028.55
2019-05-13T09:27:52.464Z,1028.55
2019-05-13T09:28:53.908Z,1028.53
2019-05-13T09:29:55.359Z,1028.54
2019-05-13T09:30:56.760Z,1028.55
2019-05-13T09:31:58.166Z,1028.65
2019-05-13T09:33:01.821Z,1028.57
2019-05-13T09:34:01.431Z,1028.58
2019-05-13T09:35:03.052Z,1028.65
2019-05-13T09:36:03.694Z,1028.61
2019-05-13T09:37:05.106Z,1028.60
2019-05-13T09:38:06.517Z,1028.67
2019-05-13T09:39:07.923Z,1028.59
2019-05-13T09:40:11.330Z,1028.49
2019-05-13T09:41:12.350Z,1028.50
2019-05-13T09:42:12.642Z,1028.48
2019-05-13T09:43:13.559Z,1028.49
2019-05-13T09:44:14.993Z,1028.59
2019-05-13T09:45:16.409Z,1028.51
2019-05-13T09:46:17.803Z,1028.58
2019-05-13T09:47:21.529Z,1028.54
2019-05-13T09:48:22.434Z,1028.53
2019-05-13T09:49:23.643Z,1028.44
2019-05-13T09:50:31.470Z,1028.44
2019-05-13T09:51:24.663Z,1028.50
2019-05-13T09:52:26.066Z,1028.48
2019-05-13T09:53:27.464Z,1028.52
2019-05-13T09:54:32.217Z,1028.58
2019-05-13T09:55:32.306Z,1028.55
2019-05-13T09:57:32.961Z,1028.60
2019-05-13T09:58:34.366Z,1028.57
2019-05-13T09:59:35.770Z,1028.59
2019-05-13T10:00:37.178Z,1028.52
2019-05-13T10:01:38.577Z,1028.59
2019-05-13T10:02:42.332Z,1028.63
2019-05-13T10:03:53.975Z,1028.70
2019-05-13T10:04:43.704Z,1028.62
2019-05-13T10:05:44.084Z,1028.61
2019-05-13T10:06:45.494Z,1028.60
2019-05-13T10:07:46.897Z,1028.55
2019-05-13T10:08:48.308Z,1028.55
2019-05-13T10:09:51.797Z,1028.51
2019-05-13T10:10:52.686Z,1028.44
2019-05-13T10:11:52.429Z,1028.42
2019-05-13T10:13:08.165Z,1028.33
2019-05-13T10:13:55.306Z,1028.48
2019-05-13T10:14:56.702Z,1028.44
2019-05-13T10:15:58.104Z,1028.43
2019-05-13T10:16:59.514Z,1028.42
2019-05-13T10:18:01.795Z,1028.42
2019-05-13T10:19:02.758Z,1028.41
2019-05-13T10:20:03.728Z,1028.36
2019-05-13T10:21:05.121Z,1028.43
2019-05-13T10:22:06.527Z,1028.41
2019-05-13T10:23:07.930Z,1028.40
2019-05-13T10:24:12.326Z,1028.48
2019-05-13T10:25:12.009Z,1028.50
2019-05-13T10:26:13.543Z,1028.42
2019-05-13T10:27:13.463Z,1028.47
2019-05-13T10:28:14.862Z,1028.50
2019-05-13T10:29:16.260Z,1028.48
2019-05-13T10:30:17.671Z,1028.51
2019-05-13T10:31:19.067Z,1028.47
2019-05-13T10:32:21.937Z,1028.45
2019-05-13T10:33:22.290Z,1028.39
2019-05-13T10:34:23.522Z,1028.38
2019-05-13T10:35:24.887Z,1028.34
2019-05-13T10:36:26.292Z,1028.30
2019-05-13T10:37:27.705Z,1028.26
2019-05-13T10:38:29.111Z,1028.34
2019-05-13T10:39:30.509Z,1028.32
2019-05-13T10:40:32.749Z,1028.32
2019-05-13T10:41:33.469Z,1028.38
2019-05-13T10:42:34.662Z,1028.35
2019-05-13T10:43:40.063Z,1028.37
2019-05-13T10:44:37.441Z,1028.30
2019-05-13T10:45:41.142Z,1028.34
2019-05-13T10:46:42.658Z,1028.34
2019-05-13T10:47:42.302Z,1028.33
2019-05-13T10:48:42.930Z,1028.35
2019-05-13T10:49:44.391Z,1028.30
2019-05-13T10:50:45.777Z,1028.35
2019-05-13T10:51:47.183Z,1028.29
2019-05-13T10:52:48.673Z,1028.32
2019-05-13T10:53:52.769Z,1028.37
2019-05-13T10:54:52.742Z,1028.37
2019-05-13T10:55:52.768Z,1028.42
2019-05-13T10:56:59.123Z,1028.39
2019-05-13T10:57:55.598Z,1028.26
2019-05-13T10:58:56.997Z,1028.34
2019-05-13T11:00:00.532Z,1028.35
2019-05-13T11:01:02.683Z,1028.33
2019-05-13T11:02:02.258Z,1028.26
2019-05-13T11:03:02.628Z,1028.30
2019-05-13T11:04:04.035Z,1028.26
2019-05-13T11:05:05.486Z,1028.26
2019-05-13T11:06:06.901Z,1028.28
2019-05-13T11:07:08.307Z,1028.30
2019-05-13T11:08:09.717Z,1028.39
2019-05-13T11:09:12.945Z,1028.29
2019-05-13T11:10:13.265Z,1028.18
2019-05-13T11:11:13.921Z,1028.25
2019-05-13T11:12:15.359Z,1028.27
2019-05-13T11:13:16.811Z,1028.26
2019-05-13T11:14:18.215Z,1028.35
2019-05-13T11:15:19.620Z,1028.27
2019-05-13T11:16:22.530Z,1028.45
2019-05-13T11:17:30.329Z,1028.50
2019-05-13T11:18:24.462Z,1028.56
2019-05-13T11:19:25.240Z,1028.58
2019-05-13T11:20:26.676Z,1028.56
2019-05-13T11:21:28.060Z,1028.51
2019-05-13T11:22:29.522Z,1028.46
2019-05-13T11:23:32.197Z,1028.45
2019-05-13T11:24:32.704Z,1028.43
2019-05-13T11:25:33.784Z,1028.21
2019-05-13T11:26:36.369Z,1028.24
2019-05-13T11:27:36.564Z,1028.23
2019-05-13T11:28:37.964Z,1028.25
2019-05-13T11:29:41.428Z,1028.19
2019-05-13T11:30:42.357Z,1028.26
2019-05-13T11:31:42.805Z,1028.40
2019-05-13T11:32:43.516Z,1028.39
2019-05-13T11:33:45.445Z,1028.44
2019-05-13T11:34:46.844Z,1028.19
2019-05-13T11:35:48.266Z,1028.12
2019-05-13T11:36:52.824Z,1028.37
2019-05-13T11:37:52.199Z,1028.47
2019-05-13T11:38:53.262Z,1028.42
2019-05-13T11:39:53.809Z,1028.32
2019-05-13T11:40:55.256Z,1028.27
2019-05-13T11:41:56.694Z,1028.28
2019-05-13T11:42:58.109Z,1028.27
2019-05-13T11:45:00.889Z,1028.08
2019-05-13T11:46:02.549Z,1028.08
2019-05-13T11:47:03.717Z,1028.18
2019-05-13T11:48:05.176Z,1028.34
2019-05-13T11:49:06.550Z,1028.37
2019-05-13T11:50:07.964Z,1028.39
2019-05-13T11:51:12.804Z,1028.41
2019-05-13T11:52:11.902Z,1028.36
2019-05-13T11:53:31.437Z,1028.39
2019-05-13T11:54:13.846Z,1028.44
2019-05-13T11:55:14.907Z,1028.37
2019-05-13T11:56:16.330Z,1028.26
2019-05-13T11:57:17.739Z,1028.27
2019-05-13T11:58:19.173Z,1028.24
2019-05-13T11:59:22.056Z,1028.03
2019-05-13T12:00:21.932Z,1028.03
2019-05-13T12:01:24.321Z,1028.02
2019-05-13T12:02:25.725Z,1028.00
2019-05-13T12:03:27.133Z,1027.94
2019-05-13T12:04:28.551Z,1028.13
2019-05-13T12:05:32.656Z,1028.11
2019-05-13T12:06:33.927Z,1027.97
2019-05-13T12:07:33.097Z,1028.01
2019-05-13T12:08:34.517Z,1027.92
2019-05-13T12:09:35.609Z,1028.09
2019-05-13T12:10:37.014Z,1028.06
2019-05-13T12:11:38.499Z,1028.06
2019-05-13T12:12:43.307Z,1028.27
2019-05-13T12:13:42.600Z,1028.22
2019-05-13T12:14:56.958Z,1028.17
2019-05-13T12:15:49.434Z,1028.15
2019-05-13T12:16:45.484Z,1028.04
2019-05-13T12:17:46.896Z,1028.15
2019-05-13T12:18:48.348Z,1028.13
2019-05-13T12:19:49.749Z,1027.93
2019-05-13T12:20:53.963Z,1027.96
2019-05-13T12:21:54.147Z,1027.94
2019-05-13T12:22:53.927Z,1027.90
2019-05-13T12:23:55.374Z,1027.85
2019-05-13T12:24:56.742Z,1027.95